Terminal Aerodrome Forecast
Issued by NWS

Current Version | Previous Version | Text Only | Print | Product List | Glossary On
Versions: 1 2 3 4 5 6 7 8 9 10 11 12 13
000
FTPA31 PHFO 191731
TAFHJR
TAF
PHJR 191731Z 1918/2018 07007KT P6SM VCSH FEW025 SCT050
     FM191900 07012G22KT P6SM VCSH FEW025 BKN050
     FM200600 07007KT P6SM VCSH FEW025 SCT050=

USA.gov is the U.S. government's official web portal to all federal, state and local government web resources and services.